Airfield :







YOU CAN JOIN US ON...

 
LOGIN :

Register | Disclaimer

   EN    FR    IT 

 









Legend :    VFR   Marginal VFR   IFR   Intensive IFR   Very Intensive IFR
Visi :
Ceiling :
>= 8 km
>= 3000ft
5 to 8 km
1000 to 3000 ft
1500m to 5 km
500 to 1000 ft
800 to 1500m
200 to 500 ft
< 800m
< 200 ft
Symbols :   Thunderstorms  Fog  Heavy snow  Heavy precipitations  Wind > 20 kt






- Airport Elevation : 550 ft
- IATA code : YOY


CYOY - C J.H.L.(Joe) Lecomte) Heliport

CURRENT METAR :
  • 180200Z 00000KT 15SM FEW250 13/07 A2983 RMK CI1 DA663FT SLP103

EXPIRED METARs :
  • 180100Z 27002KT 15SM FEW250 18/08 A2981 RMK CI2 DA1265FT SLP097

TAF TAF CYOY
Valid from the 18 at 00:00 until the 18 at 12:00 UTC


172330Z 1800/1812 23005KT P6SM SCT250
FM180500 VRB03KT P6SM SCT140 RMK FCST BASED ON AUTO OBS 180400-181200Z. NXT FCST BY 180600Z
CZUL FIR / North America



MET'MAP, your aeronautical weather chart ! - Copyright ORBIFLY December 2007 - Disclaimer

ORBIFLY MET'MAP TEAM :

Programming & Development : Alexandra Zaïnal
Concept & original design : Baudouin d'Aumeries
Assistance for programming : Marc-Olivier Méhu
Technical & hardware support : Manuel Goepfert

Contact : metmap@orbifly.com




SOURCES & CREDITS :

   NOAA